sensor_id;sensor_type;location;lat;lon;timestamp;P1;durP1;ratioP1;P2;durP2;ratioP2
32032;SDS011;31720;52.638;9.216;2024-03-07T00:02:08;14.68;;;6.47;;
32032;SDS011;31720;52.638;9.216;2024-03-07T00:05:10;15.40;;;6.32;;
32032;SDS011;31720;52.638;9.216;2024-03-07T00:08:14;13.70;;;5.82;;
32032;SDS011;31720;52.638;9.216;2024-03-07T00:11:15;12.65;;;5.72;;
32032;SDS011;31720;52.638;9.216;2024-03-07T00:14:17;11.00;;;5.72;;
32032;SDS011;31720;52.638;9.216;2024-03-07T00:17:19;12.13;;;6.47;;
32032;SDS011;31720;52.638;9.216;2024-03-07T00:20:20;15.05;;;4.97;;
32032;SDS011;31720;52.638;9.216;2024-03-07T00:23:23;12.73;;;5.88;;
32032;SDS011;31720;52.638;9.216;2024-03-07T00:26:25;15.48;;;6.05;;
32032;SDS011;31720;52.638;9.216;2024-03-07T00:29:26;11.68;;;5.78;;
32032;SDS011;31720;52.638;9.216;2024-03-07T00:32:28;7.80;;;4.45;;
32032;SDS011;31720;52.638;9.216;2024-03-07T00:35:35;15.80;;;6.15;;
32032;SDS011;31720;52.638;9.216;2024-03-07T00:38:37;12.25;;;5.95;;
32032;SDS011;31720;52.638;9.216;2024-03-07T00:41:39;11.95;;;6.07;;
32032;SDS011;31720;52.638;9.216;2024-03-07T00:44:41;16.33;;;6.05;;
32032;SDS011;31720;52.638;9.216;2024-03-07T00:47:42;13.27;;;5.57;;
32032;SDS011;31720;52.638;9.216;2024-03-07T00:50:43;14.60;;;6.20;;
32032;SDS011;31720;52.638;9.216;2024-03-07T00:53:46;14.13;;;6.15;;
32032;SDS011;31720;52.638;9.216;2024-03-07T00:56:48;10.98;;;5.55;;
32032;SDS011;31720;52.638;9.216;2024-03-07T00:59:50;14.43;;;6.15;;
32032;SDS011;31720;52.638;9.216;2024-03-07T01:02:51;12.60;;;5.82;;
32032;SDS011;31720;52.638;9.216;2024-03-07T01:05:53;13.90;;;6.05;;
32032;SDS011;31720;52.638;9.216;2024-03-07T01:08:55;13.38;;;6.60;;
32032;SDS011;31720;52.638;9.216;2024-03-07T01:11:57;10.07;;;5.20;;
32032;SDS011;31720;52.638;9.216;2024-03-07T01:14:59;11.30;;;5.57;;
32032;SDS011;31720;52.638;9.216;2024-03-07T01:18:01;11.18;;;5.75;;
32032;SDS011;31720;52.638;9.216;2024-03-07T01:21:02;12.93;;;5.40;;
32032;SDS011;31720;52.638;9.216;2024-03-07T01:24:07;12.90;;;6.07;;
32032;SDS011;31720;52.638;9.216;2024-03-07T01:27:09;10.57;;;5.25;;
32032;SDS011;31720;52.638;9.216;2024-03-07T01:30:10;16.60;;;6.22;;
32032;SDS011;31720;52.638;9.216;2024-03-07T01:33:13;12.30;;;6.22;;
32032;SDS011;31720;52.638;9.216;2024-03-07T01:36:15;18.27;;;6.28;;
32032;SDS011;31720;52.638;9.216;2024-03-07T01:39:17;15.15;;;6.60;;
32032;SDS011;31720;52.638;9.216;2024-03-07T01:42:19;13.15;;;6.45;;
32032;SDS011;31720;52.638;9.216;2024-03-07T01:45:21;12.75;;;6.15;;
32032;SDS011;31720;52.638;9.216;2024-03-07T01:48:24;11.95;;;5.00;;
32032;SDS011;31720;52.638;9.216;2024-03-07T01:51:28;14.95;;;5.63;;
32032;SDS011;31720;52.638;9.216;2024-03-07T01:54:31;9.82;;;5.72;;
32032;SDS011;31720;52.638;9.216;2024-03-07T01:57:33;17.77;;;6.88;;
32032;SDS011;31720;52.638;9.216;2024-03-07T02:00:35;19.95;;;6.63;;
32032;SDS011;31720;52.638;9.216;2024-03-07T02:03:36;13.52;;;6.60;;
32032;SDS011;31720;52.638;9.216;2024-03-07T02:06:37;9.60;;;4.72;;
32032;SDS011;31720;52.638;9.216;2024-03-07T02:09:40;12.18;;;5.32;;
32032;SDS011;31720;52.638;9.216;2024-03-07T02:12:42;13.10;;;5.65;;
32032;SDS011;31720;52.638;9.216;2024-03-07T02:15:43;12.98;;;6.43;;
32032;SDS011;31720;52.638;9.216;2024-03-07T02:18:44;15.85;;;6.15;;
32032;SDS011;31720;52.638;9.216;2024-03-07T02:21:47;20.58;;;7.68;;
32032;SDS011;31720;52.638;9.216;2024-03-07T02:24:48;13.23;;;6.97;;
32032;SDS011;31720;52.638;9.216;2024-03-07T02:27:50;19.65;;;6.88;;
32032;SDS011;31720;52.638;9.216;2024-03-07T02:30:51;13.98;;;5.95;;
32032;SDS011;31720;52.638;9.216;2024-03-07T02:33:53;15.15;;;7.10;;
32032;SDS011;31720;52.638;9.216;2024-03-07T02:36:55;17.40;;;7.45;;
32032;SDS011;31720;52.638;9.216;2024-03-07T02:39:57;19.52;;;7.18;;
32032;SDS011;31720;52.638;9.216;2024-03-07T02:42:58;16.15;;;7.32;;
32032;SDS011;31720;52.638;9.216;2024-03-07T02:46:00;15.65;;;7.82;;
32032;SDS011;31720;52.638;9.216;2024-03-07T02:49:01;21.42;;;6.93;;
32032;SDS011;31720;52.638;9.216;2024-03-07T02:52:04;17.52;;;7.47;;
32032;SDS011;31720;52.638;9.216;2024-03-07T02:55:07;17.65;;;7.47;;
32032;SDS011;31720;52.638;9.216;2024-03-07T02:58:10;14.73;;;6.35;;
32032;SDS011;31720;52.638;9.216;2024-03-07T03:01:11;19.67;;;7.20;;
32032;SDS011;31720;52.638;9.216;2024-03-07T03:04:13;15.60;;;7.93;;
32032;SDS011;31720;52.638;9.216;2024-03-07T03:07:15;15.50;;;6.82;;
32032;SDS011;31720;52.638;9.216;2024-03-07T03:10:17;21.55;;;8.10;;
32032;SDS011;31720;52.638;9.216;2024-03-07T03:13:20;17.77;;;8.48;;
32032;SDS011;31720;52.638;9.216;2024-03-07T03:16:22;17.52;;;7.65;;
32032;SDS011;31720;52.638;9.216;2024-03-07T03:19:23;15.50;;;7.72;;
32032;SDS011;31720;52.638;9.216;2024-03-07T03:22:27;21.50;;;8.95;;
32032;SDS011;31720;52.638;9.216;2024-03-07T03:25:29;26.10;;;9.20;;
32032;SDS011;31720;52.638;9.216;2024-03-07T03:28:34;18.13;;;8.48;;
32032;SDS011;31720;52.638;9.216;2024-03-07T03:31:35;25.45;;;9.40;;
32032;SDS011;31720;52.638;9.216;2024-03-07T03:34:37;26.52;;;9.55;;
32032;SDS011;31720;52.638;9.216;2024-03-07T03:37:40;23.00;;;9.45;;
32032;SDS011;31720;52.638;9.216;2024-03-07T03:40:42;24.60;;;9.95;;
32032;SDS011;31720;52.638;9.216;2024-03-07T03:43:43;24.35;;;10.82;;
32032;SDS011;31720;52.638;9.216;2024-03-07T03:46:45;30.67;;;11.07;;
32032;SDS011;31720;52.638;9.216;2024-03-07T03:49:46;27.23;;;10.10;;
32032;SDS011;31720;52.638;9.216;2024-03-07T03:52:49;23.58;;;10.07;;
32032;SDS011;31720;52.638;9.216;2024-03-07T03:55:50;24.88;;;9.13;;
32032;SDS011;31720;52.638;9.216;2024-03-07T03:58:52;25.15;;;10.40;;
32032;SDS011;31720;52.638;9.216;2024-03-07T04:01:53;22.73;;;10.20;;
32032;SDS011;31720;52.638;9.216;2024-03-07T04:04:54;26.10;;;10.60;;
32032;SDS011;31720;52.638;9.216;2024-03-07T04:07:57;28.85;;;11.10;;
32032;SDS011;31720;52.638;9.216;2024-03-07T04:10:58;28.15;;;11.82;;
32032;SDS011;31720;52.638;9.216;2024-03-07T04:14:00;27.85;;;10.38;;
32032;SDS011;31720;52.638;9.216;2024-03-07T04:17:01;27.05;;;11.15;;
32032;SDS011;31720;52.638;9.216;2024-03-07T04:20:03;29.23;;;11.27;;
32032;SDS011;31720;52.638;9.216;2024-03-07T04:23:07;24.63;;;11.02;;
32032;SDS011;31720;52.638;9.216;2024-03-07T04:26:08;27.65;;;12.88;;
32032;SDS011;31720;52.638;9.216;2024-03-07T04:29:10;26.83;;;11.70;;
32032;SDS011;31720;52.638;9.216;2024-03-07T04:32:11;37.63;;;12.88;;
32032;SDS011;31720;52.638;9.216;2024-03-07T04:35:13;29.65;;;12.13;;
32032;SDS011;31720;52.638;9.216;2024-03-07T04:38:15;27.83;;;11.90;;
32032;SDS011;31720;52.638;9.216;2024-03-07T04:41:17;28.40;;;11.45;;
32032;SDS011;31720;52.638;9.216;2024-03-07T04:44:18;30.98;;;11.30;;
32032;SDS011;31720;52.638;9.216;2024-03-07T04:47:22;32.08;;;12.63;;
32032;SDS011;31720;52.638;9.216;2024-03-07T04:50:23;30.70;;;12.18;;
32032;SDS011;31720;52.638;9.216;2024-03-07T04:53:26;28.27;;;11.70;;
32032;SDS011;31720;52.638;9.216;2024-03-07T04:56:27;32.35;;;13.02;;
32032;SDS011;31720;52.638;9.216;2024-03-07T04:59:29;29.65;;;12.55;;
32032;SDS011;31720;52.638;9.216;2024-03-07T05:02:31;33.15;;;13.18;;
32032;SDS011;31720;52.638;9.216;2024-03-07T05:05:32;32.13;;;13.05;;
32032;SDS011;31720;52.638;9.216;2024-03-07T05:08:35;29.90;;;12.52;;
32032;SDS011;31720;52.638;9.216;2024-03-07T05:11:36;25.85;;;10.63;;
32032;SDS011;31720;52.638;9.216;2024-03-07T05:14:37;32.60;;;12.90;;
32032;SDS011;31720;52.638;9.216;2024-03-07T05:17:39;32.00;;;13.75;;
32032;SDS011;31720;52.638;9.216;2024-03-07T05:20:42;31.27;;;13.60;;
32032;SDS011;31720;52.638;9.216;2024-03-07T05:23:45;37.78;;;14.52;;
32032;SDS011;31720;52.638;9.216;2024-03-07T05:26:49;30.80;;;12.13;;
32032;SDS011;31720;52.638;9.216;2024-03-07T05:29:51;30.85;;;13.52;;
32032;SDS011;31720;52.638;9.216;2024-03-07T05:32:52;33.75;;;13.70;;
32032;SDS011;31720;52.638;9.216;2024-03-07T05:35:53;31.33;;;13.30;;
32032;SDS011;31720;52.638;9.216;2024-03-07T05:39:04;27.08;;;12.70;;
32032;SDS011;31720;52.638;9.216;2024-03-07T05:42:09;29.15;;;12.80;;
32032;SDS011;31720;52.638;9.216;2024-03-07T05:45:14;37.78;;;14.95;;
32032;SDS011;31720;52.638;9.216;2024-03-07T05:48:17;32.05;;;13.45;;
32032;SDS011;31720;52.638;9.216;2024-03-07T05:51:19;37.55;;;13.80;;
32032;SDS011;31720;52.638;9.216;2024-03-07T05:54:21;41.42;;;15.48;;
32032;SDS011;31720;52.638;9.216;2024-03-07T05:57:23;32.90;;;13.32;;
32032;SDS011;31720;52.638;9.216;2024-03-07T06:00:25;33.78;;;13.23;;
32032;SDS011;31720;52.638;9.216;2024-03-07T06:03:28;34.25;;;14.57;;
32032;SDS011;31720;52.638;9.216;2024-03-07T06:06:29;35.53;;;13.95;;
32032;SDS011;31720;52.638;9.216;2024-03-07T06:09:33;35.88;;;13.20;;
32032;SDS011;31720;52.638;9.216;2024-03-07T06:12:34;33.33;;;13.70;;
32032;SDS011;31720;52.638;9.216;2024-03-07T06:15:35;39.10;;;15.38;;
32032;SDS011;31720;52.638;9.216;2024-03-07T06:18:38;36.95;;;14.20;;
32032;SDS011;31720;52.638;9.216;2024-03-07T06:21:40;33.80;;;12.80;;
32032;SDS011;31720;52.638;9.216;2024-03-07T06:24:43;35.15;;;13.77;;
32032;SDS011;31720;52.638;9.216;2024-03-07T06:27:44;35.38;;;15.40;;
32032;SDS011;31720;52.638;9.216;2024-03-07T06:30:48;43.70;;;17.48;;
32032;SDS011;31720;52.638;9.216;2024-03-07T06:33:50;41.55;;;16.67;;
32032;SDS011;31720;52.638;9.216;2024-03-07T06:36:51;42.33;;;17.35;;
32032;SDS011;31720;52.638;9.216;2024-03-07T06:39:56;57.65;;;20.25;;
32032;SDS011;31720;52.638;9.216;2024-03-07T06:42:58;71.50;;;24.85;;
32032;SDS011;31720;52.638;9.216;2024-03-07T06:45:59;69.75;;;22.23;;
32032;SDS011;31720;52.638;9.216;2024-03-07T06:49:00;67.43;;;21.85;;
32032;SDS011;31720;52.638;9.216;2024-03-07T06:52:02;53.05;;;20.00;;
32032;SDS011;31720;52.638;9.216;2024-03-07T06:55:05;46.88;;;17.15;;
32032;SDS011;31720;52.638;9.216;2024-03-07T06:58:07;46.75;;;17.13;;
32032;SDS011;31720;52.638;9.216;2024-03-07T07:01:10;38.58;;;14.20;;
32032;SDS011;31720;52.638;9.216;2024-03-07T07:04:15;42.75;;;16.15;;
32032;SDS011;31720;52.638;9.216;2024-03-07T07:07:16;48.08;;;18.15;;
32032;SDS011;31720;52.638;9.216;2024-03-07T07:10:19;44.95;;;16.85;;
32032;SDS011;31720;52.638;9.216;2024-03-07T07:13:23;46.25;;;16.80;;
32032;SDS011;31720;52.638;9.216;2024-03-07T07:16:25;45.83;;;15.93;;
32032;SDS011;31720;52.638;9.216;2024-03-07T07:19:27;52.13;;;16.95;;
32032;SDS011;31720;52.638;9.216;2024-03-07T07:22:29;55.38;;;19.88;;
32032;SDS011;31720;52.638;9.216;2024-03-07T07:25:31;49.65;;;18.25;;
32032;SDS011;31720;52.638;9.216;2024-03-07T07:28:34;45.75;;;17.30;;
32032;SDS011;31720;52.638;9.216;2024-03-07T07:31:36;58.97;;;17.42;;
32032;SDS011;31720;52.638;9.216;2024-03-07T07:34:37;56.65;;;18.60;;
32032;SDS011;31720;52.638;9.216;2024-03-07T07:37:38;48.80;;;16.55;;
32032;SDS011;31720;52.638;9.216;2024-03-07T07:40:42;50.13;;;16.92;;
32032;SDS011;31720;52.638;9.216;2024-03-07T07:43:44;57.90;;;17.05;;
32032;SDS011;31720;52.638;9.216;2024-03-07T07:46:46;47.25;;;17.23;;
32032;SDS011;31720;52.638;9.216;2024-03-07T07:49:49;50.20;;;16.75;;
32032;SDS011;31720;52.638;9.216;2024-03-07T07:52:50;46.92;;;17.23;;
32032;SDS011;31720;52.638;9.216;2024-03-07T07:55:54;51.72;;;17.23;;
32032;SDS011;31720;52.638;9.216;2024-03-07T07:58:56;48.95;;;15.38;;
32032;SDS011;31720;52.638;9.216;2024-03-07T08:01:58;51.95;;;16.92;;
32032;SDS011;31720;52.638;9.216;2024-03-07T08:05:00;56.72;;;18.27;;
32032;SDS011;31720;52.638;9.216;2024-03-07T08:08:04;54.08;;;17.02;;
32032;SDS011;31720;52.638;9.216;2024-03-07T08:11:08;51.92;;;16.13;;
32032;SDS011;31720;52.638;9.216;2024-03-07T08:14:11;48.67;;;17.15;;
32032;SDS011;31720;52.638;9.216;2024-03-07T08:17:12;51.67;;;17.10;;
32032;SDS011;31720;52.638;9.216;2024-03-07T08:20:14;43.60;;;16.30;;
32032;SDS011;31720;52.638;9.216;2024-03-07T08:23:18;47.15;;;16.50;;
32032;SDS011;31720;52.638;9.216;2024-03-07T08:26:21;53.50;;;15.55;;
32032;SDS011;31720;52.638;9.216;2024-03-07T08:29:22;52.85;;;17.23;;
32032;SDS011;31720;52.638;9.216;2024-03-07T08:32:24;46.88;;;15.23;;
32032;SDS011;31720;52.638;9.216;2024-03-07T08:35:26;51.03;;;16.42;;
32032;SDS011;31720;52.638;9.216;2024-03-07T08:38:29;39.60;;;14.48;;
32032;SDS011;31720;52.638;9.216;2024-03-07T08:41:31;45.13;;;14.90;;
32032;SDS011;31720;52.638;9.216;2024-03-07T08:44:37;51.00;;;16.73;;
32032;SDS011;31720;52.638;9.216;2024-03-07T08:47:38;47.45;;;16.10;;
32032;SDS011;31720;52.638;9.216;2024-03-07T08:50:40;43.70;;;16.27;;
32032;SDS011;31720;52.638;9.216;2024-03-07T08:53:41;43.88;;;14.90;;
32032;SDS011;31720;52.638;9.216;2024-03-07T08:56:44;38.85;;;13.93;;
32032;SDS011;31720;52.638;9.216;2024-03-07T08:59:45;33.47;;;13.35;;
32032;SDS011;31720;52.638;9.216;2024-03-07T09:02:47;40.38;;;13.68;;
32032;SDS011;31720;52.638;9.216;2024-03-07T09:05:50;37.08;;;13.32;;
32032;SDS011;31720;52.638;9.216;2024-03-07T09:08:52;35.53;;;12.43;;
32032;SDS011;31720;52.638;9.216;2024-03-07T09:11:54;41.85;;;13.82;;
32032;SDS011;31720;52.638;9.216;2024-03-07T09:14:56;32.33;;;12.60;;
32032;SDS011;31720;52.638;9.216;2024-03-07T09:17:57;38.72;;;13.45;;
32032;SDS011;31720;52.638;9.216;2024-03-07T09:20:58;36.67;;;11.88;;
32032;SDS011;31720;52.638;9.216;2024-03-07T09:24:00;31.60;;;12.90;;
32032;SDS011;31720;52.638;9.216;2024-03-07T09:27:03;31.20;;;12.00;;
32032;SDS011;31720;52.638;9.216;2024-03-07T09:30:05;33.35;;;12.00;;
32032;SDS011;31720;52.638;9.216;2024-03-07T09:33:11;31.92;;;11.80;;
32032;SDS011;31720;52.638;9.216;2024-03-07T09:36:16;32.25;;;11.15;;
32032;SDS011;31720;52.638;9.216;2024-03-07T09:39:18;30.40;;;11.82;;
32032;SDS011;31720;52.638;9.216;2024-03-07T09:42:21;34.22;;;10.70;;
32032;SDS011;31720;52.638;9.216;2024-03-07T09:45:28;26.58;;;10.07;;
32032;SDS011;31720;52.638;9.216;2024-03-07T09:48:31;28.33;;;10.90;;
32032;SDS011;31720;52.638;9.216;2024-03-07T09:51:33;28.60;;;10.90;;
32032;SDS011;31720;52.638;9.216;2024-03-07T09:54:35;34.47;;;9.40;;
32032;SDS011;31720;52.638;9.216;2024-03-07T09:57:38;28.67;;;11.05;;
32032;SDS011;31720;52.638;9.216;2024-03-07T10:00:39;26.92;;;9.82;;
32032;SDS011;31720;52.638;9.216;2024-03-07T10:03:42;25.67;;;9.48;;
32032;SDS011;31720;52.638;9.216;2024-03-07T10:06:45;26.42;;;9.38;;
32032;SDS011;31720;52.638;9.216;2024-03-07T10:09:47;30.75;;;10.80;;
32032;SDS011;31720;52.638;9.216;2024-03-07T10:12:50;24.30;;;8.98;;
32032;SDS011;31720;52.638;9.216;2024-03-07T10:15:53;22.98;;;8.20;;
32032;SDS011;31720;52.638;9.216;2024-03-07T10:18:59;25.38;;;8.98;;
32032;SDS011;31720;52.638;9.216;2024-03-07T10:22:05;26.55;;;8.85;;
32032;SDS011;31720;52.638;9.216;2024-03-07T10:25:06;25.45;;;9.75;;
32032;SDS011;31720;52.638;9.216;2024-03-07T10:28:10;28.58;;;9.43;;
32032;SDS011;31720;52.638;9.216;2024-03-07T10:31:12;20.80;;;8.93;;
32032;SDS011;31720;52.638;9.216;2024-03-07T10:34:31;29.45;;;10.43;;
32032;SDS011;31720;52.638;9.216;2024-03-07T10:37:34;33.65;;;10.73;;
32032;SDS011;31720;52.638;9.216;2024-03-07T10:40:35;41.72;;;14.35;;
32032;SDS011;31720;52.638;9.216;2024-03-07T10:43:42;32.25;;;10.52;;
32032;SDS011;31720;52.638;9.216;2024-03-07T10:46:48;25.63;;;9.55;;
32032;SDS011;31720;52.638;9.216;2024-03-07T10:49:57;22.73;;;8.55;;
32032;SDS011;31720;52.638;9.216;2024-03-07T10:53:06;25.38;;;9.10;;
32032;SDS011;31720;52.638;9.216;2024-03-07T10:56:18;23.27;;;8.95;;
32032;SDS011;31720;52.638;9.216;2024-03-07T10:59:31;26.10;;;9.90;;
32032;SDS011;31720;52.638;9.216;2024-03-07T11:02:41;30.40;;;10.85;;
32032;SDS011;31720;52.638;9.216;2024-03-07T11:05:47;35.23;;;9.93;;
32032;SDS011;31720;52.638;9.216;2024-03-07T11:08:48;24.90;;;9.15;;
32032;SDS011;31720;52.638;9.216;2024-03-07T11:11:51;30.15;;;10.80;;
32032;SDS011;31720;52.638;9.216;2024-03-07T11:14:54;31.90;;;11.75;;
32032;SDS011;31720;52.638;9.216;2024-03-07T11:17:58;29.17;;;9.80;;
32032;SDS011;31720;52.638;9.216;2024-03-07T11:21:00;25.65;;;10.20;;
32032;SDS011;31720;52.638;9.216;2024-03-07T11:24:03;33.00;;;10.90;;
32032;SDS011;31720;52.638;9.216;2024-03-07T11:27:05;43.75;;;13.07;;
32032;SDS011;31720;52.638;9.216;2024-03-07T11:30:12;29.10;;;10.98;;
32032;SDS011;31720;52.638;9.216;2024-03-07T11:33:14;23.15;;;9.88;;
32032;SDS011;31720;52.638;9.216;2024-03-07T11:36:41;31.23;;;11.38;;
32032;SDS011;31720;52.638;9.216;2024-03-07T11:39:46;36.30;;;10.33;;
32032;SDS011;31720;52.638;9.216;2024-03-07T11:42:49;28.88;;;11.43;;
32032;SDS011;31720;52.638;9.216;2024-03-07T11:45:52;35.83;;;10.68;;
32032;SDS011;31720;52.638;9.216;2024-03-07T11:48:57;32.80;;;10.85;;
32032;SDS011;31720;52.638;9.216;2024-03-07T11:52:01;34.33;;;12.20;;
32032;SDS011;31720;52.638;9.216;2024-03-07T11:55:04;33.55;;;12.07;;
32032;SDS011;31720;52.638;9.216;2024-03-07T11:58:06;38.33;;;11.85;;
32032;SDS011;31720;52.638;9.216;2024-03-07T12:01:09;33.58;;;11.82;;
32032;SDS011;31720;52.638;9.216;2024-03-07T12:04:13;34.40;;;11.15;;
32032;SDS011;31720;52.638;9.216;2024-03-07T12:07:16;35.22;;;11.45;;
32032;SDS011;31720;52.638;9.216;2024-03-07T12:10:18;65.53;;;20.02;;
32032;SDS011;31720;52.638;9.216;2024-03-07T12:13:24;35.17;;;12.98;;
32032;SDS011;31720;52.638;9.216;2024-03-07T12:16:28;37.20;;;12.48;;
32032;SDS011;31720;52.638;9.216;2024-03-07T12:19:31;37.28;;;12.75;;
32032;SDS011;31720;52.638;9.216;2024-03-07T12:22:35;34.88;;;12.18;;
32032;SDS011;31720;52.638;9.216;2024-03-07T12:25:37;46.17;;;12.90;;
32032;SDS011;31720;52.638;9.216;2024-03-07T12:28:39;36.25;;;11.07;;
32032;SDS011;31720;52.638;9.216;2024-03-07T12:31:44;40.50;;;12.82;;
32032;SDS011;31720;52.638;9.216;2024-03-07T12:34:45;29.83;;;11.20;;
32032;SDS011;31720;52.638;9.216;2024-03-07T12:37:47;30.35;;;12.38;;
32032;SDS011;31720;52.638;9.216;2024-03-07T12:41:01;32.45;;;10.90;;
32032;SDS011;31720;52.638;9.216;2024-03-07T12:44:05;26.50;;;10.85;;
32032;SDS011;31720;52.638;9.216;2024-03-07T12:47:13;28.05;;;10.18;;
32032;SDS011;31720;52.638;9.216;2024-03-07T12:50:15;28.85;;;11.18;;
32032;SDS011;31720;52.638;9.216;2024-03-07T12:53:16;32.53;;;11.35;;
32032;SDS011;31720;52.638;9.216;2024-03-07T12:56:18;31.10;;;11.57;;
32032;SDS011;31720;52.638;9.216;2024-03-07T12:59:20;35.63;;;11.10;;
32032;SDS011;31720;52.638;9.216;2024-03-07T13:02:25;33.47;;;11.82;;
32032;SDS011;31720;52.638;9.216;2024-03-07T13:05:29;33.60;;;11.20;;
32032;SDS011;31720;52.638;9.216;2024-03-07T13:08:31;37.83;;;10.27;;
32032;SDS011;31720;52.638;9.216;2024-03-07T13:11:32;37.17;;;11.10;;
32032;SDS011;31720;52.638;9.216;2024-03-07T13:14:34;32.45;;;10.65;;
32032;SDS011;31720;52.638;9.216;2024-03-07T13:17:36;31.77;;;10.95;;
32032;SDS011;31720;52.638;9.216;2024-03-07T13:20:38;31.23;;;11.30;;
32032;SDS011;31720;52.638;9.216;2024-03-07T13:23:43;30.90;;;10.20;;
32032;SDS011;31720;52.638;9.216;2024-03-07T13:26:45;27.42;;;10.50;;
32032;SDS011;31720;52.638;9.216;2024-03-07T13:29:48;24.70;;;9.13;;
32032;SDS011;31720;52.638;9.216;2024-03-07T13:32:51;28.05;;;10.15;;
32032;SDS011;31720;52.638;9.216;2024-03-07T13:35:53;28.90;;;9.88;;
32032;SDS011;31720;52.638;9.216;2024-03-07T13:38:54;28.73;;;10.48;;
32032;SDS011;31720;52.638;9.216;2024-03-07T13:41:58;24.88;;;10.15;;
32032;SDS011;31720;52.638;9.216;2024-03-07T13:44:59;29.13;;;10.25;;
32032;SDS011;31720;52.638;9.216;2024-03-07T13:48:02;25.85;;;9.50;;
32032;SDS011;31720;52.638;9.216;2024-03-07T13:51:05;23.50;;;9.95;;
32032;SDS011;31720;52.638;9.216;2024-03-07T13:54:08;30.85;;;11.45;;
32032;SDS011;31720;52.638;9.216;2024-03-07T13:57:26;29.77;;;9.57;;
32032;SDS011;31720;52.638;9.216;2024-03-07T14:00:38;28.57;;;9.93;;
32032;SDS011;31720;52.638;9.216;2024-03-07T14:03:56;26.40;;;10.07;;
32032;SDS011;31720;52.638;9.216;2024-03-07T14:07:24;24.52;;;9.93;;
32032;SDS011;31720;52.638;9.216;2024-03-07T14:10:46;28.27;;;10.15;;
32032;SDS011;31720;52.638;9.216;2024-03-07T14:14:17;29.58;;;8.85;;
32032;SDS011;31720;52.638;9.216;2024-03-07T14:21:40;34.00;;;11.48;;
32032;SDS011;31720;52.638;9.216;2024-03-07T14:24:59;27.67;;;10.27;;
32032;SDS011;31720;52.638;9.216;2024-03-07T14:28:19;27.38;;;10.70;;
32032;SDS011;31720;52.638;9.216;2024-03-07T14:31:40;26.60;;;10.40;;
32032;SDS011;31720;52.638;9.216;2024-03-07T14:34:49;29.15;;;9.88;;
32032;SDS011;31720;52.638;9.216;2024-03-07T14:38:04;27.10;;;9.57;;
32032;SDS011;31720;52.638;9.216;2024-03-07T14:41:37;26.08;;;9.60;;
32032;SDS011;31720;52.638;9.216;2024-03-07T14:44:44;25.80;;;9.23;;
32032;SDS011;31720;52.638;9.216;2024-03-07T14:47:49;37.15;;;11.02;;
32032;SDS011;31720;52.638;9.216;2024-03-07T14:50:52;27.88;;;10.68;;
32032;SDS011;31720;52.638;9.216;2024-03-07T14:53:55;22.05;;;8.55;;
32032;SDS011;31720;52.638;9.216;2024-03-07T14:56:57;26.10;;;9.80;;
32032;SDS011;31720;52.638;9.216;2024-03-07T14:59:58;29.27;;;8.40;;
32032;SDS011;31720;52.638;9.216;2024-03-07T15:03:00;20.95;;;8.60;;
32032;SDS011;31720;52.638;9.216;2024-03-07T15:06:02;25.42;;;9.57;;
32032;SDS011;31720;52.638;9.216;2024-03-07T15:09:05;26.92;;;9.02;;
32032;SDS011;31720;52.638;9.216;2024-03-07T15:12:09;29.30;;;9.73;;
32032;SDS011;31720;52.638;9.216;2024-03-07T15:15:11;23.65;;;10.50;;
32032;SDS011;31720;52.638;9.216;2024-03-07T15:18:14;22.27;;;9.18;;
32032;SDS011;31720;52.638;9.216;2024-03-07T15:21:15;21.98;;;8.52;;
32032;SDS011;31720;52.638;9.216;2024-03-07T15:24:19;24.45;;;9.40;;
32032;SDS011;31720;52.638;9.216;2024-03-07T15:27:21;21.10;;;8.93;;
32032;SDS011;31720;52.638;9.216;2024-03-07T15:30:23;21.60;;;9.48;;
32032;SDS011;31720;52.638;9.216;2024-03-07T15:33:30;23.02;;;8.73;;
32032;SDS011;31720;52.638;9.216;2024-03-07T15:36:31;27.88;;;9.43;;
32032;SDS011;31720;52.638;9.216;2024-03-07T15:39:34;22.75;;;8.82;;
32032;SDS011;31720;52.638;9.216;2024-03-07T15:42:38;25.52;;;8.98;;
32032;SDS011;31720;52.638;9.216;2024-03-07T15:45:40;24.92;;;9.80;;
32032;SDS011;31720;52.638;9.216;2024-03-07T15:48:44;35.05;;;10.13;;
32032;SDS011;31720;52.638;9.216;2024-03-07T15:51:48;22.77;;;8.43;;
32032;SDS011;31720;52.638;9.216;2024-03-07T15:54:51;19.48;;;8.25;;
32032;SDS011;31720;52.638;9.216;2024-03-07T15:57:53;23.73;;;8.60;;
32032;SDS011;31720;52.638;9.216;2024-03-07T16:00:56;22.08;;;8.32;;
32032;SDS011;31720;52.638;9.216;2024-03-07T16:03:57;18.42;;;8.25;;
32032;SDS011;31720;52.638;9.216;2024-03-07T16:06:58;26.48;;;9.00;;
32032;SDS011;31720;52.638;9.216;2024-03-07T16:10:02;16.90;;;8.25;;
32032;SDS011;31720;52.638;9.216;2024-03-07T16:13:04;19.48;;;7.95;;
32032;SDS011;31720;52.638;9.216;2024-03-07T16:16:07;23.92;;;9.05;;
32032;SDS011;31720;52.638;9.216;2024-03-07T16:19:08;25.08;;;9.82;;
32032;SDS011;31720;52.638;9.216;2024-03-07T16:22:10;24.05;;;8.65;;
32032;SDS011;31720;52.638;9.216;2024-03-07T16:25:15;24.70;;;8.80;;
32032;SDS011;31720;52.638;9.216;2024-03-07T16:28:20;25.63;;;9.45;;
32032;SDS011;31720;52.638;9.216;2024-03-07T16:31:27;23.92;;;8.80;;
32032;SDS011;31720;52.638;9.216;2024-03-07T16:34:28;27.30;;;9.15;;
32032;SDS011;31720;52.638;9.216;2024-03-07T16:37:31;27.50;;;9.07;;
32032;SDS011;31720;52.638;9.216;2024-03-07T16:40:34;23.55;;;8.13;;
32032;SDS011;31720;52.638;9.216;2024-03-07T16:43:37;37.05;;;17.30;;
32032;SDS011;31720;52.638;9.216;2024-03-07T16:46:39;43.13;;;16.92;;
32032;SDS011;31720;52.638;9.216;2024-03-07T16:49:40;38.60;;;15.57;;
32032;SDS011;31720;52.638;9.216;2024-03-07T16:52:42;35.05;;;13.63;;
32032;SDS011;31720;52.638;9.216;2024-03-07T16:55:48;37.88;;;15.60;;
32032;SDS011;31720;52.638;9.216;2024-03-07T16:58:50;29.08;;;10.27;;
32032;SDS011;31720;52.638;9.216;2024-03-07T17:01:51;31.00;;;11.98;;
32032;SDS011;31720;52.638;9.216;2024-03-07T17:04:52;24.02;;;9.95;;
32032;SDS011;31720;52.638;9.216;2024-03-07T17:07:57;37.28;;;11.80;;
32032;SDS011;31720;52.638;9.216;2024-03-07T17:11:02;28.90;;;11.98;;
32032;SDS011;31720;52.638;9.216;2024-03-07T17:14:04;32.25;;;11.07;;
32032;SDS011;31720;52.638;9.216;2024-03-07T17:17:06;31.45;;;11.25;;
32032;SDS011;31720;52.638;9.216;2024-03-07T17:20:07;31.42;;;12.00;;
32032;SDS011;31720;52.638;9.216;2024-03-07T17:23:09;27.02;;;11.43;;
32032;SDS011;31720;52.638;9.216;2024-03-07T17:26:13;41.38;;;12.90;;
32032;SDS011;31720;52.638;9.216;2024-03-07T17:29:15;27.17;;;10.07;;
32032;SDS011;31720;52.638;9.216;2024-03-07T17:32:17;26.60;;;11.02;;
32032;SDS011;31720;52.638;9.216;2024-03-07T17:35:19;36.90;;;11.80;;
32032;SDS011;31720;52.638;9.216;2024-03-07T17:38:21;36.15;;;11.15;;
32032;SDS011;31720;52.638;9.216;2024-03-07T17:41:23;28.50;;;10.18;;
32032;SDS011;31720;52.638;9.216;2024-03-07T17:44:25;21.08;;;8.88;;
32032;SDS011;31720;52.638;9.216;2024-03-07T17:47:29;29.92;;;11.02;;
32032;SDS011;31720;52.638;9.216;2024-03-07T17:50:30;22.27;;;10.90;;
32032;SDS011;31720;52.638;9.216;2024-03-07T17:53:33;37.75;;;12.68;;
32032;SDS011;31720;52.638;9.216;2024-03-07T17:56:38;18.85;;;9.48;;
32032;SDS011;31720;52.638;9.216;2024-03-07T17:59:43;26.58;;;10.95;;
32032;SDS011;31720;52.638;9.216;2024-03-07T18:02:46;23.58;;;9.70;;